< Cyclone 201519 2015 Season Cyclone 201524 >
Cyclone 201521 (Quang)
General InformationDetailed Track InformationTrack Information on Google MapsList of All Images || ResourceGoogle EarthGE AnimationAtom FeedGeoJSON
Detalied Best Track Wind (Time Zone = UTC)
Year Month Day Hour Lat. Long. Wind (kt) Gust (kt) Direc. of Major Storm Axis Radius of Major Storm Axis (nm) Radius of Minor Storm Axis (nm) Direc. of Major Gale Axis Radius of Major Gale Axis (nm) Radius of Minor Gale Axis (nm) Image
2015 4 27 00 -11.9 115.0 20 45 symmetric - - symmetric - - Image
2015 4 27 06 -11.9 114.5 20 45 symmetric - - symmetric - - Image
2015 4 27 12 -12.7 114.2 20 45 symmetric - - symmetric - - Image
2015 4 27 18 -13.5 113.7 20 45 symmetric - - symmetric - - Image
2015 4 28 00 -13.9 112.0 25 45 symmetric - - symmetric - - Image
2015 4 28 06 -14.1 111.5 25 45 symmetric - - symmetric - - Image
2015 4 28 12 -14.4 110.8 30 45 symmetric - - symmetric - - Image
2015 4 28 18 -14.7 110.1 35 50 symmetric - - symmetric - - Image
2015 4 29 00 -15.1 109.6 40 55 symmetric - - symmetric - - Image
2015 4 29 06 -15.3 109.3 50 70 symmetric - - symmetric - - Image
2015 4 29 12 -15.7 109.2 55 75 symmetric - - symmetric - - Image
2015 4 29 15 -16.0 109.0 60 85 symmetric - - symmetric - - Image
2015 4 29 18 -16.2 109.1 75 105 symmetric - - symmetric - - Image
2015 4 29 21 -16.6 109.3 85 -1 symmetric - - symmetric - - Image
2015 4 30 00 -16.9 109.4 90 125 symmetric - - symmetric - - Image
2015 4 30 03 -17.2 109.5 95 -1 symmetric - - symmetric - - Image
2015 4 30 06 -17.7 110.0 100 140 symmetric - - symmetric - - Image
2015 4 30 09 -18.4 110.5 98.3333 -1 symmetric - - symmetric - - Image
2015 4 30 12 -18.8 110.8 95 135 symmetric - - symmetric - - Image
2015 4 30 18 -19.7 111.8 80 110 symmetric - - symmetric - - Image
2015 5 1 00 -20.5 113.0 65 90 symmetric - - symmetric - - Image
2015 5 1 03 -21.1 113.6 55 75 symmetric - - symmetric - - Image
2015 5 1 06 -21.6 114.2 40 55 symmetric - - symmetric - - Image
2015 5 1 09 -22.0 114.5 30 -1 symmetric - - symmetric - - Image
2015 5 1 12 -22.2 114.7 20 45 symmetric - - symmetric - - Image
< Cyclone 201519 2015 Season Cyclone 201524 >

Help